Карточка аэропорта URSS

Внимание!
Информация на этой странице в стадии наполнения.
Если вы не увидели какой-то информации, или заметили неточность - пожалуйста сообщите нам!
Спасибо!
Команда RU-STAFF
Название аэропортаСочи
Название аэропорта (англ.)Sochi
Превышение89 ft. (27.1 m.)
Координаты43°26.634', 39°56.55'
Высота перехода13000 ft
Эшелон переходаFL140 (QNH >= 1013); FL150 (QNH 977-1012); FL160 (QNH < 977)
Коды ответчика1060-1077
Зона ОрВДРостов-на-Дону РПИ (URRV)
Данные METARURSS 271100Z 27005MPS 9999 SCT040CB OVC080 05/M03 Q1018 R02/010070 R06/////// NOSIG RMK R06/29006MPS MT OBSC QFE762
Проноз погоды (TAF)URSS 270755Z 2709/2809 30003G08MPS 9999 SCT030CB BKN100 TEMPO 2715/2720 VRB07MPS 3000 -TSRASN FM272000 14005G10MPS 6000 -SHSNRA BKN010 BKN020CB OVC100 TEMPO 2720/2809 VRB07G12MPS 1000 TSSNRA BKN006 BKN020CB OVC100
NOTAMshow/hide NOTAM
AWOS   TABLE

Информация о ВПП

ВПП Длина ВПП (м.) Покрытие Курс ВПП Частота ILS
062890Цементобетон58111.1
242890Цементобетон238 
022500Цементобетон22110.5
202500Цементобетон202 

Диспетчерские позиции

Позывной Наименование органа УВД Частота
URSS_GNDСочи-Руление119.000
URSS_TWRСочи-Старт121.200
URSS_APPСочи-Подход124.600
URSS_R_APPСочи-Круг119.700
URSS_DELСочи-Деливери132.700
URSS_FM1119.000



Спутниковое изображение